EBAW

EBAW 150450Z 21005KT 9999 FEW011 15/13 Q1005 RERA TEMPO 4000 RA

TAF TAF EBAW 251700Z 2518/2606 11007KT CAVOK PROB30 TEMPO 2518/2520 VRB15G30KT 3500 SHRA TSRA

EHWO

EHWO 150455Z AUTO 21006KT 170V240 9999 -RA FEW073 BKN095 OVC100 15/13 Q1004 BLU

TAF EHWO 140836Z 1409/1421 08008KT 9999 BKN045 PROB30 TEMPO 1411/1413 SCT010 BECMG 1412/1415 14006KT

EBBL

EBBL 150452Z 19004KT 9999 FEW030 BKN180 15/12 Q1006 BLU BLU

TAF EBBL 141541Z 1419/1507 12007KT 9999 BKN100 BECMG 1422/1500 22007KT TEMPO 1502/1507 5000 -RA SCT020 BKN050

Always consult the official METAR resources.